sensor_id;sensor_type;location;lat;lon;timestamp;temperature;humidity
11934;DHT22;6026;48.784;9.198;2023-03-14T00:01:19;9.40;99.90
11934;DHT22;6026;48.784;9.198;2023-03-14T00:03:48;9.40;99.90
11934;DHT22;6026;48.784;9.198;2023-03-14T00:06:15;9.40;99.90
11934;DHT22;6026;48.784;9.198;2023-03-14T00:08:42;9.40;99.90
11934;DHT22;6026;48.784;9.198;2023-03-14T00:11:16;9.40;99.90
11934;DHT22;6026;48.784;9.198;2023-03-14T00:13:42;9.40;99.90
11934;DHT22;6026;48.784;9.198;2023-03-14T00:16:11;9.40;99.90
11934;DHT22;6026;48.784;9.198;2023-03-14T00:18:38;9.40;99.90
11934;DHT22;6026;48.784;9.198;2023-03-14T00:21:05;9.30;99.90
11934;DHT22;6026;48.784;9.198;2023-03-14T00:23:32;9.30;99.90
11934;DHT22;6026;48.784;9.198;2023-03-14T00:26:19;9.30;99.90
11934;DHT22;6026;48.784;9.198;2023-03-14T00:28:45;9.40;99.90
11934;DHT22;6026;48.784;9.198;2023-03-14T00:31:14;9.40;99.90
11934;DHT22;6026;48.784;9.198;2023-03-14T00:33:40;9.30;99.90
11934;DHT22;6026;48.784;9.198;2023-03-14T00:36:11;9.40;99.90
11934;DHT22;6026;48.784;9.198;2023-03-14T00:38:39;9.40;99.90
11934;DHT22;6026;48.784;9.198;2023-03-14T00:41:06;9.40;99.90
11934;DHT22;6026;48.784;9.198;2023-03-14T00:43:32;9.40;99.90
11934;DHT22;6026;48.784;9.198;2023-03-14T00:45:58;9.40;99.90
11934;DHT22;6026;48.784;9.198;2023-03-14T00:48:24;9.30;99.90
11934;DHT22;6026;48.784;9.198;2023-03-14T00:50:49;9.40;99.90
11934;DHT22;6026;48.784;9.198;2023-03-14T00:53:15;9.40;99.90
11934;DHT22;6026;48.784;9.198;2023-03-14T00:55:42;9.40;99.90
11934;DHT22;6026;48.784;9.198;2023-03-14T00:58:08;9.40;99.90
11934;DHT22;6026;48.784;9.198;2023-03-14T01:00:34;9.30;99.90
11934;DHT22;6026;48.784;9.198;2023-03-14T01:03:01;9.30;99.90
11934;DHT22;6026;48.784;9.198;2023-03-14T01:05:27;9.40;99.90
11934;DHT22;6026;48.784;9.198;2023-03-14T01:07:53;9.40;99.90
11934;DHT22;6026;48.784;9.198;2023-03-14T01:10:19;9.40;99.90
11934;DHT22;6026;48.784;9.198;2023-03-14T01:12:44;9.40;99.90
11934;DHT22;6026;48.784;9.198;2023-03-14T01:15:10;9.30;99.90
11934;DHT22;6026;48.784;9.198;2023-03-14T01:17:36;9.40;99.90
11934;DHT22;6026;48.784;9.198;2023-03-14T01:20:03;9.40;99.90
11934;DHT22;6026;48.784;9.198;2023-03-14T01:22:30;9.40;99.90
11934;DHT22;6026;48.784;9.198;2023-03-14T01:24:55;9.40;99.90
11934;DHT22;6026;48.784;9.198;2023-03-14T01:27:21;9.40;99.90
11934;DHT22;6026;48.784;9.198;2023-03-14T01:29:46;9.40;99.90
11934;DHT22;6026;48.784;9.198;2023-03-14T01:32:12;9.40;99.90
11934;DHT22;6026;48.784;9.198;2023-03-14T01:34:38;9.30;99.90
11934;DHT22;6026;48.784;9.198;2023-03-14T01:37:03;9.30;99.90
11934;DHT22;6026;48.784;9.198;2023-03-14T01:39:29;9.40;99.90
11934;DHT22;6026;48.784;9.198;2023-03-14T01:41:55;9.30;99.90
11934;DHT22;6026;48.784;9.198;2023-03-14T01:44:21;9.30;99.90
11934;DHT22;6026;48.784;9.198;2023-03-14T01:46:46;9.30;99.90
11934;DHT22;6026;48.784;9.198;2023-03-14T01:49:30;9.30;99.90
11934;DHT22;6026;48.784;9.198;2023-03-14T01:52:10;9.30;99.90
11934;DHT22;6026;48.784;9.198;2023-03-14T01:57:11;9.30;99.90
11934;DHT22;6026;48.784;9.198;2023-03-14T01:59:40;9.40;99.90
11934;DHT22;6026;48.784;9.198;2023-03-14T02:02:09;9.30;99.90
11934;DHT22;6026;48.784;9.198;2023-03-14T02:04:38;9.30;99.90
11934;DHT22;6026;48.784;9.198;2023-03-14T02:07:18;9.30;99.90
11934;DHT22;6026;48.784;9.198;2023-03-14T02:09:46;9.30;99.90
11934;DHT22;6026;48.784;9.198;2023-03-14T02:12:16;9.30;99.90
11934;DHT22;6026;48.784;9.198;2023-03-14T02:14:42;9.30;99.90
11934;DHT22;6026;48.784;9.198;2023-03-14T02:17:13;9.20;99.90
11934;DHT22;6026;48.784;9.198;2023-03-14T02:22:24;9.20;99.90
11934;DHT22;6026;48.784;9.198;2023-03-14T02:27:34;9.20;99.90
11934;DHT22;6026;48.784;9.198;2023-03-14T02:30:07;9.20;99.90
11934;DHT22;6026;48.784;9.198;2023-03-14T02:32:36;9.20;99.90
11934;DHT22;6026;48.784;9.198;2023-03-14T02:35:07;9.20;99.90
11934;DHT22;6026;48.784;9.198;2023-03-14T02:37:45;9.20;99.90
11934;DHT22;6026;48.784;9.198;2023-03-14T02:40:12;9.20;99.90
11934;DHT22;6026;48.784;9.198;2023-03-14T02:42:38;9.20;99.90
11934;DHT22;6026;48.784;9.198;2023-03-14T02:47:38;9.20;99.90
11934;DHT22;6026;48.784;9.198;2023-03-14T02:50:14;9.20;99.90
11934;DHT22;6026;48.784;9.198;2023-03-14T02:52:41;9.20;99.90
11934;DHT22;6026;48.784;9.198;2023-03-14T02:55:07;9.20;99.90
11934;DHT22;6026;48.784;9.198;2023-03-14T02:57:32;9.20;99.90
11934;DHT22;6026;48.784;9.198;2023-03-14T02:59:59;9.20;99.90
11934;DHT22;6026;48.784;9.198;2023-03-14T03:02:26;9.30;99.90
11934;DHT22;6026;48.784;9.198;2023-03-14T03:04:51;9.20;99.90
11934;DHT22;6026;48.784;9.198;2023-03-14T03:07:17;9.20;99.90
11934;DHT22;6026;48.784;9.198;2023-03-14T03:09:43;9.20;99.90
11934;DHT22;6026;48.784;9.198;2023-03-14T03:12:08;9.30;99.90
11934;DHT22;6026;48.784;9.198;2023-03-14T03:14:34;9.30;99.90
11934;DHT22;6026;48.784;9.198;2023-03-14T03:16:59;9.30;99.90
11934;DHT22;6026;48.784;9.198;2023-03-14T03:19:25;9.30;99.90
11934;DHT22;6026;48.784;9.198;2023-03-14T03:21:50;9.30;99.90
11934;DHT22;6026;48.784;9.198;2023-03-14T03:24:16;9.30;99.90
11934;DHT22;6026;48.784;9.198;2023-03-14T03:26:41;9.40;99.90
11934;DHT22;6026;48.784;9.198;2023-03-14T03:29:07;9.30;99.90
11934;DHT22;6026;48.784;9.198;2023-03-14T03:31:32;9.30;99.90
11934;DHT22;6026;48.784;9.198;2023-03-14T03:33:58;9.30;99.90
11934;DHT22;6026;48.784;9.198;2023-03-14T03:36:25;9.30;99.90
11934;DHT22;6026;48.784;9.198;2023-03-14T03:38:51;9.30;99.90
11934;DHT22;6026;48.784;9.198;2023-03-14T03:41:16;9.30;99.90
11934;DHT22;6026;48.784;9.198;2023-03-14T03:43:42;9.30;99.90
11934;DHT22;6026;48.784;9.198;2023-03-14T03:46:08;9.30;99.90
11934;DHT22;6026;48.784;9.198;2023-03-14T03:48:34;9.20;99.90
11934;DHT22;6026;48.784;9.198;2023-03-14T03:51:00;9.20;99.90
11934;DHT22;6026;48.784;9.198;2023-03-14T03:53:26;9.20;99.90
11934;DHT22;6026;48.784;9.198;2023-03-14T03:55:51;9.20;99.90
11934;DHT22;6026;48.784;9.198;2023-03-14T03:58:17;9.20;99.90
11934;DHT22;6026;48.784;9.198;2023-03-14T04:00:42;9.20;99.90
11934;DHT22;6026;48.784;9.198;2023-03-14T04:03:08;9.20;99.90
11934;DHT22;6026;48.784;9.198;2023-03-14T04:05:33;9.20;99.90
11934;DHT22;6026;48.784;9.198;2023-03-14T04:08:02;9.20;99.90
11934;DHT22;6026;48.784;9.198;2023-03-14T04:10:29;9.20;99.90
11934;DHT22;6026;48.784;9.198;2023-03-14T04:12:55;9.20;99.90
11934;DHT22;6026;48.784;9.198;2023-03-14T04:15:20;9.20;99.90
11934;DHT22;6026;48.784;9.198;2023-03-14T04:17:46;9.20;99.90
11934;DHT22;6026;48.784;9.198;2023-03-14T04:20:12;9.20;99.90
11934;DHT22;6026;48.784;9.198;2023-03-14T04:22:38;9.20;99.90
11934;DHT22;6026;48.784;9.198;2023-03-14T04:25:05;9.10;99.90
11934;DHT22;6026;48.784;9.198;2023-03-14T04:27:31;9.10;99.90
11934;DHT22;6026;48.784;9.198;2023-03-14T04:29:56;9.20;99.90
11934;DHT22;6026;48.784;9.198;2023-03-14T04:32:22;9.20;99.90
11934;DHT22;6026;48.784;9.198;2023-03-14T04:34:47;9.20;99.90
11934;DHT22;6026;48.784;9.198;2023-03-14T04:37:13;9.20;99.90
11934;DHT22;6026;48.784;9.198;2023-03-14T04:39:39;9.20;99.90
11934;DHT22;6026;48.784;9.198;2023-03-14T04:42:04;9.10;99.90
11934;DHT22;6026;48.784;9.198;2023-03-14T04:44:31;9.20;99.90
11934;DHT22;6026;48.784;9.198;2023-03-14T04:46:56;9.20;99.90
11934;DHT22;6026;48.784;9.198;2023-03-14T04:49:22;9.20;99.90
11934;DHT22;6026;48.784;9.198;2023-03-14T04:51:48;9.20;99.90
11934;DHT22;6026;48.784;9.198;2023-03-14T04:54:16;9.20;99.90
11934;DHT22;6026;48.784;9.198;2023-03-14T04:56:42;9.10;99.90
11934;DHT22;6026;48.784;9.198;2023-03-14T04:59:08;9.10;99.90
11934;DHT22;6026;48.784;9.198;2023-03-14T05:01:34;9.10;99.90
11934;DHT22;6026;48.784;9.198;2023-03-14T05:04:00;9.10;99.90
11934;DHT22;6026;48.784;9.198;2023-03-14T05:06:25;9.00;99.90
11934;DHT22;6026;48.784;9.198;2023-03-14T05:08:51;9.00;99.90
11934;DHT22;6026;48.784;9.198;2023-03-14T05:11:17;9.00;99.90
11934;DHT22;6026;48.784;9.198;2023-03-14T05:13:43;9.00;99.90
11934;DHT22;6026;48.784;9.198;2023-03-14T05:16:10;9.00;99.90
11934;DHT22;6026;48.784;9.198;2023-03-14T05:18:36;8.90;99.90
11934;DHT22;6026;48.784;9.198;2023-03-14T05:21:03;8.90;99.90
11934;DHT22;6026;48.784;9.198;2023-03-14T05:23:29;8.90;99.90
11934;DHT22;6026;48.784;9.198;2023-03-14T05:25:55;8.90;99.90
11934;DHT22;6026;48.784;9.198;2023-03-14T05:28:21;8.90;99.90
11934;DHT22;6026;48.784;9.198;2023-03-14T05:30:46;8.90;99.90
11934;DHT22;6026;48.784;9.198;2023-03-14T05:33:12;8.90;99.90
11934;DHT22;6026;48.784;9.198;2023-03-14T05:35:37;8.80;99.90
11934;DHT22;6026;48.784;9.198;2023-03-14T05:38:03;8.90;99.90
11934;DHT22;6026;48.784;9.198;2023-03-14T05:40:29;8.90;99.90
11934;DHT22;6026;48.784;9.198;2023-03-14T05:42:54;8.90;99.90
11934;DHT22;6026;48.784;9.198;2023-03-14T05:45:20;8.90;99.90
11934;DHT22;6026;48.784;9.198;2023-03-14T05:47:45;8.90;99.90
11934;DHT22;6026;48.784;9.198;2023-03-14T05:50:11;8.90;99.90
11934;DHT22;6026;48.784;9.198;2023-03-14T05:52:37;8.90;99.90
11934;DHT22;6026;48.784;9.198;2023-03-14T05:55:03;8.90;99.90
11934;DHT22;6026;48.784;9.198;2023-03-14T05:57:29;9.00;99.90
11934;DHT22;6026;48.784;9.198;2023-03-14T05:59:55;9.00;99.90
11934;DHT22;6026;48.784;9.198;2023-03-14T06:02:20;8.90;99.90
11934;DHT22;6026;48.784;9.198;2023-03-14T06:04:46;9.00;99.90
11934;DHT22;6026;48.784;9.198;2023-03-14T06:07:11;9.00;99.90
11934;DHT22;6026;48.784;9.198;2023-03-14T06:09:37;9.00;99.90
11934;DHT22;6026;48.784;9.198;2023-03-14T06:12:05;9.00;99.90
11934;DHT22;6026;48.784;9.198;2023-03-14T06:14:30;9.00;99.90
11934;DHT22;6026;48.784;9.198;2023-03-14T06:16:56;9.00;99.90
11934;DHT22;6026;48.784;9.198;2023-03-14T06:19:24;9.00;99.90
11934;DHT22;6026;48.784;9.198;2023-03-14T06:21:50;9.10;99.90
11934;DHT22;6026;48.784;9.198;2023-03-14T06:24:15;9.00;99.90
11934;DHT22;6026;48.784;9.198;2023-03-14T06:26:41;9.00;99.90
11934;DHT22;6026;48.784;9.198;2023-03-14T06:29:07;9.00;99.90
11934;DHT22;6026;48.784;9.198;2023-03-14T06:31:33;9.10;99.90
11934;DHT22;6026;48.784;9.198;2023-03-14T06:33:58;9.10;99.90
11934;DHT22;6026;48.784;9.198;2023-03-14T06:36:24;9.10;99.90
11934;DHT22;6026;48.784;9.198;2023-03-14T06:38:50;9.10;99.90
11934;DHT22;6026;48.784;9.198;2023-03-14T06:41:16;9.10;99.90
11934;DHT22;6026;48.784;9.198;2023-03-14T06:43:41;9.20;99.90
11934;DHT22;6026;48.784;9.198;2023-03-14T06:46:07;9.20;99.90
11934;DHT22;6026;48.784;9.198;2023-03-14T06:48:33;9.20;99.90
11934;DHT22;6026;48.784;9.198;2023-03-14T06:50:58;9.30;99.90
11934;DHT22;6026;48.784;9.198;2023-03-14T06:53:24;9.50;99.90
11934;DHT22;6026;48.784;9.198;2023-03-14T06:55:49;9.60;99.90
11934;DHT22;6026;48.784;9.198;2023-03-14T06:58:15;9.80;99.90
11934;DHT22;6026;48.784;9.198;2023-03-14T07:00:41;9.90;99.90
11934;DHT22;6026;48.784;9.198;2023-03-14T07:03:06;10.20;99.90
11934;DHT22;6026;48.784;9.198;2023-03-14T07:05:32;10.40;99.90
11934;DHT22;6026;48.784;9.198;2023-03-14T07:07:57;10.50;99.90
11934;DHT22;6026;48.784;9.198;2023-03-14T07:10:23;10.60;99.90
11934;DHT22;6026;48.784;9.198;2023-03-14T07:12:48;10.60;99.90
11934;DHT22;6026;48.784;9.198;2023-03-14T07:15:14;10.80;99.90
11934;DHT22;6026;48.784;9.198;2023-03-14T07:17:40;10.90;99.90
11934;DHT22;6026;48.784;9.198;2023-03-14T07:20:06;11.10;99.90
11934;DHT22;6026;48.784;9.198;2023-03-14T07:22:32;11.30;99.90
11934;DHT22;6026;48.784;9.198;2023-03-14T07:24:58;11.50;99.90
11934;DHT22;6026;48.784;9.198;2023-03-14T07:27:24;11.90;99.90
11934;DHT22;6026;48.784;9.198;2023-03-14T07:29:49;12.10;99.90
11934;DHT22;6026;48.784;9.198;2023-03-14T07:32:15;12.20;99.90
11934;DHT22;6026;48.784;9.198;2023-03-14T07:34:41;12.50;99.90
11934;DHT22;6026;48.784;9.198;2023-03-14T07:37:07;12.60;99.90
11934;DHT22;6026;48.784;9.198;2023-03-14T07:39:33;12.80;99.90
11934;DHT22;6026;48.784;9.198;2023-03-14T07:41:58;12.90;99.90
11934;DHT22;6026;48.784;9.198;2023-03-14T07:44:24;13.10;99.90
11934;DHT22;6026;48.784;9.198;2023-03-14T07:46:49;13.10;99.90
11934;DHT22;6026;48.784;9.198;2023-03-14T07:49:15;13.50;99.90
11934;DHT22;6026;48.784;9.198;2023-03-14T07:51:41;13.40;99.90
11934;DHT22;6026;48.784;9.198;2023-03-14T07:54:06;13.50;99.90
11934;DHT22;6026;48.784;9.198;2023-03-14T07:56:32;13.40;99.90
11934;DHT22;6026;48.784;9.198;2023-03-14T07:58:58;13.50;99.90
11934;DHT22;6026;48.784;9.198;2023-03-14T08:01:24;13.60;99.90
11934;DHT22;6026;48.784;9.198;2023-03-14T08:03:49;13.80;99.90
11934;DHT22;6026;48.784;9.198;2023-03-14T08:06:15;13.80;99.90
11934;DHT22;6026;48.784;9.198;2023-03-14T08:08:40;13.80;99.90
11934;DHT22;6026;48.784;9.198;2023-03-14T08:11:07;13.80;99.90
11934;DHT22;6026;48.784;9.198;2023-03-14T08:13:36;14.10;99.90
11934;DHT22;6026;48.784;9.198;2023-03-14T08:16:03;14.00;99.90
11934;DHT22;6026;48.784;9.198;2023-03-14T08:18:29;14.00;99.90
11934;DHT22;6026;48.784;9.198;2023-03-14T08:20:55;14.10;99.90
11934;DHT22;6026;48.784;9.198;2023-03-14T08:23:21;14.20;99.90
11934;DHT22;6026;48.784;9.198;2023-03-14T08:25:49;14.30;99.90
11934;DHT22;6026;48.784;9.198;2023-03-14T08:28:15;14.20;99.90
11934;DHT22;6026;48.784;9.198;2023-03-14T08:30:41;14.30;99.90
11934;DHT22;6026;48.784;9.198;2023-03-14T08:33:07;14.30;99.90
11934;DHT22;6026;48.784;9.198;2023-03-14T08:35:33;14.40;99.90
11934;DHT22;6026;48.784;9.198;2023-03-14T08:37:58;14.70;99.90
11934;DHT22;6026;48.784;9.198;2023-03-14T08:40:24;14.70;99.90
11934;DHT22;6026;48.784;9.198;2023-03-14T08:42:49;15.30;99.90
11934;DHT22;6026;48.784;9.198;2023-03-14T08:45:16;15.40;99.90
11934;DHT22;6026;48.784;9.198;2023-03-14T08:47:43;15.40;99.90
11934;DHT22;6026;48.784;9.198;2023-03-14T08:50:09;15.40;99.90
11934;DHT22;6026;48.784;9.198;2023-03-14T08:52:35;15.50;99.90
11934;DHT22;6026;48.784;9.198;2023-03-14T08:55:03;15.50;99.90
11934;DHT22;6026;48.784;9.198;2023-03-14T08:57:29;15.90;99.90
11934;DHT22;6026;48.784;9.198;2023-03-14T08:59:55;16.00;99.90
11934;DHT22;6026;48.784;9.198;2023-03-14T09:02:22;16.00;99.90
11934;DHT22;6026;48.784;9.198;2023-03-14T09:04:47;16.10;99.90
11934;DHT22;6026;48.784;9.198;2023-03-14T09:07:14;15.50;99.90
11934;DHT22;6026;48.784;9.198;2023-03-14T09:09:40;14.90;99.90
11934;DHT22;6026;48.784;9.198;2023-03-14T09:12:05;14.90;99.90
11934;DHT22;6026;48.784;9.198;2023-03-14T09:14:31;14.80;99.90
11934;DHT22;6026;48.784;9.198;2023-03-14T09:16:57;15.00;99.90
11934;DHT22;6026;48.784;9.198;2023-03-14T09:19:23;14.80;99.90
11934;DHT22;6026;48.784;9.198;2023-03-14T09:21:48;14.90;99.90
11934;DHT22;6026;48.784;9.198;2023-03-14T09:24:15;15.00;99.90
11934;DHT22;6026;48.784;9.198;2023-03-14T09:26:40;15.30;99.90
11934;DHT22;6026;48.784;9.198;2023-03-14T09:29:06;15.10;99.90
11934;DHT22;6026;48.784;9.198;2023-03-14T09:31:32;15.20;99.90
11934;DHT22;6026;48.784;9.198;2023-03-14T09:33:57;15.20;99.90
11934;DHT22;6026;48.784;9.198;2023-03-14T09:36:23;15.60;99.90
11934;DHT22;6026;48.784;9.198;2023-03-14T09:38:48;15.60;99.90
11934;DHT22;6026;48.784;9.198;2023-03-14T09:41:31;15.30;99.90
11934;DHT22;6026;48.784;9.198;2023-03-14T09:44:08;15.10;99.90
11934;DHT22;6026;48.784;9.198;2023-03-14T09:46:36;14.50;99.90
11934;DHT22;6026;48.784;9.198;2023-03-14T09:51:47;14.10;99.90
11934;DHT22;6026;48.784;9.198;2023-03-14T09:56:50;13.90;99.90
11934;DHT22;6026;48.784;9.198;2023-03-14T09:59:16;13.70;99.90
11934;DHT22;6026;48.784;9.198;2023-03-14T10:01:42;13.60;99.90
11934;DHT22;6026;48.784;9.198;2023-03-14T10:04:13;13.50;99.90
11934;DHT22;6026;48.784;9.198;2023-03-14T10:06:40;13.40;99.90
11934;DHT22;6026;48.784;9.198;2023-03-14T10:09:06;13.50;99.90
11934;DHT22;6026;48.784;9.198;2023-03-14T10:11:33;13.60;99.90
11934;DHT22;6026;48.784;9.198;2023-03-14T10:14:06;13.60;99.90
11934;DHT22;6026;48.784;9.198;2023-03-14T10:16:35;13.80;99.90
11934;DHT22;6026;48.784;9.198;2023-03-14T10:19:07;14.30;99.90
11934;DHT22;6026;48.784;9.198;2023-03-14T10:21:38;14.70;99.90
11934;DHT22;6026;48.784;9.198;2023-03-14T10:24:08;15.20;99.90
11934;DHT22;6026;48.784;9.198;2023-03-14T10:26:35;15.50;99.90
11934;DHT22;6026;48.784;9.198;2023-03-14T10:29:08;15.30;99.90
11934;DHT22;6026;48.784;9.198;2023-03-14T10:31:57;15.60;99.90
11934;DHT22;6026;48.784;9.198;2023-03-14T10:34:31;15.60;99.90
11934;DHT22;6026;48.784;9.198;2023-03-14T10:37:21;15.00;99.90
11934;DHT22;6026;48.784;9.198;2023-03-14T10:39:59;14.80;99.90
11934;DHT22;6026;48.784;9.198;2023-03-14T10:42:39;14.50;99.90
11934;DHT22;6026;48.784;9.198;2023-03-14T10:45:15;14.40;99.90
11934;DHT22;6026;48.784;9.198;2023-03-14T10:47:49;14.30;99.90
11934;DHT22;6026;48.784;9.198;2023-03-14T10:50:29;14.10;99.90
11934;DHT22;6026;48.784;9.198;2023-03-14T10:52:57;14.20;99.90
11934;DHT22;6026;48.784;9.198;2023-03-14T10:55:24;14.10;99.90
11934;DHT22;6026;48.784;9.198;2023-03-14T10:57:51;13.90;99.90
11934;DHT22;6026;48.784;9.198;2023-03-14T11:00:22;13.70;99.90
11934;DHT22;6026;48.784;9.198;2023-03-14T11:11:19;12.90;99.90
11934;DHT22;6026;48.784;9.198;2023-03-14T11:16:27;12.70;99.90
11934;DHT22;6026;48.784;9.198;2023-03-14T11:19:15;12.60;99.90
11934;DHT22;6026;48.784;9.198;2023-03-14T11:21:55;12.60;99.90
11934;DHT22;6026;48.784;9.198;2023-03-14T11:27:17;12.40;99.90
11934;DHT22;6026;48.784;9.198;2023-03-14T11:30:13;12.20;99.90
11934;DHT22;6026;48.784;9.198;2023-03-14T11:35:30;11.70;99.90
11934;DHT22;6026;48.784;9.198;2023-03-14T11:38:40;11.50;99.90
11934;DHT22;6026;48.784;9.198;2023-03-14T11:41:04;11.30;99.90
11934;DHT22;6026;48.784;9.198;2023-03-14T11:43:39;11.10;99.90
11934;DHT22;6026;48.784;9.198;2023-03-14T11:46:23;11.00;99.90
11934;DHT22;6026;48.784;9.198;2023-03-14T11:49:15;11.10;99.90
11934;DHT22;6026;48.784;9.198;2023-03-14T11:51:56;11.10;99.90
11934;DHT22;6026;48.784;9.198;2023-03-14T11:55:12;11.10;99.90
11934;DHT22;6026;48.784;9.198;2023-03-14T11:57:30;11.10;99.90
11934;DHT22;6026;48.784;9.198;2023-03-14T12:10:24;10.90;99.90
11934;DHT22;6026;48.784;9.198;2023-03-14T12:12:50;11.10;99.90
11934;DHT22;6026;48.784;9.198;2023-03-14T12:15:21;11.10;99.90
11934;DHT22;6026;48.784;9.198;2023-03-14T12:17:53;11.10;99.90
11934;DHT22;6026;48.784;9.198;2023-03-14T12:20:24;11.10;99.90
11934;DHT22;6026;48.784;9.198;2023-03-14T12:23:02;11.00;99.90
11934;DHT22;6026;48.784;9.198;2023-03-14T12:25:31;11.00;99.90
11934;DHT22;6026;48.784;9.198;2023-03-14T12:30:35;11.40;99.90
11934;DHT22;6026;48.784;9.198;2023-03-14T12:33:19;11.90;99.90
11934;DHT22;6026;48.784;9.198;2023-03-14T12:35:49;11.80;99.90
11934;DHT22;6026;48.784;9.198;2023-03-14T12:43:30;12.30;99.90
11934;DHT22;6026;48.784;9.198;2023-03-14T12:46:08;12.70;99.90
11934;DHT22;6026;48.784;9.198;2023-03-14T12:48:35;13.40;99.90
11934;DHT22;6026;48.784;9.198;2023-03-14T12:51:05;13.10;99.90
11934;DHT22;6026;48.784;9.198;2023-03-14T13:07:02;13.80;99.90
11934;DHT22;6026;48.784;9.198;2023-03-14T13:12:09;13.60;99.90
11934;DHT22;6026;48.784;9.198;2023-03-14T13:14:41;13.30;99.90
11934;DHT22;6026;48.784;9.198;2023-03-14T13:17:14;12.80;99.90
11934;DHT22;6026;48.784;9.198;2023-03-14T13:19:41;12.80;99.90
11934;DHT22;6026;48.784;9.198;2023-03-14T13:22:20;12.80;99.90
11934;DHT22;6026;48.784;9.198;2023-03-14T13:24:46;13.00;99.90
11934;DHT22;6026;48.784;9.198;2023-03-14T13:27:19;12.60;99.90
11934;DHT22;6026;48.784;9.198;2023-03-14T13:29:48;12.00;99.90
11934;DHT22;6026;48.784;9.198;2023-03-14T13:32:21;11.90;99.90
11934;DHT22;6026;48.784;9.198;2023-03-14T13:34:47;12.10;99.90
11934;DHT22;6026;48.784;9.198;2023-03-14T13:37:21;11.70;99.90
11934;DHT22;6026;48.784;9.198;2023-03-14T13:39:55;11.50;99.90
11934;DHT22;6026;48.784;9.198;2023-03-14T13:42:25;11.40;99.90
11934;DHT22;6026;48.784;9.198;2023-03-14T13:44:52;11.10;99.90
11934;DHT22;6026;48.784;9.198;2023-03-14T13:47:20;10.90;99.90
11934;DHT22;6026;48.784;9.198;2023-03-14T13:49:47;10.90;99.90
11934;DHT22;6026;48.784;9.198;2023-03-14T13:52:37;10.70;99.90
11934;DHT22;6026;48.784;9.198;2023-03-14T13:55:05;10.70;99.90
11934;DHT22;6026;48.784;9.198;2023-03-14T13:57:49;10.60;99.90
11934;DHT22;6026;48.784;9.198;2023-03-14T14:00:22;10.60;99.90
11934;DHT22;6026;48.784;9.198;2023-03-14T14:02:53;10.60;99.90
11934;DHT22;6026;48.784;9.198;2023-03-14T14:05:20;10.40;99.90
11934;DHT22;6026;48.784;9.198;2023-03-14T14:07:45;10.30;99.90
11934;DHT22;6026;48.784;9.198;2023-03-14T14:10:12;10.30;99.90
11934;DHT22;6026;48.784;9.198;2023-03-14T14:13:00;10.20;99.90
11934;DHT22;6026;48.784;9.198;2023-03-14T14:15:28;10.20;99.90
11934;DHT22;6026;48.784;9.198;2023-03-14T14:18:00;10.20;99.90
11934;DHT22;6026;48.784;9.198;2023-03-14T14:20:46;10.20;99.90
11934;DHT22;6026;48.784;9.198;2023-03-14T14:23:13;10.00;99.90
11934;DHT22;6026;48.784;9.198;2023-03-14T14:25:39;10.00;99.90
11934;DHT22;6026;48.784;9.198;2023-03-14T14:28:24;9.90;99.90
11934;DHT22;6026;48.784;9.198;2023-03-14T14:31:18;9.90;99.90
11934;DHT22;6026;48.784;9.198;2023-03-14T14:33:59;10.00;99.90
11934;DHT22;6026;48.784;9.198;2023-03-14T14:36:39;9.90;99.90
11934;DHT22;6026;48.784;9.198;2023-03-14T14:41:41;9.90;99.90
11934;DHT22;6026;48.784;9.198;2023-03-14T14:44:10;10.00;99.90
11934;DHT22;6026;48.784;9.198;2023-03-14T14:46:37;9.80;99.90
11934;DHT22;6026;48.784;9.198;2023-03-14T14:49:06;9.80;99.90
11934;DHT22;6026;48.784;9.198;2023-03-14T14:51:44;9.80;99.90
11934;DHT22;6026;48.784;9.198;2023-03-14T14:54:13;9.60;99.90
11934;DHT22;6026;48.784;9.198;2023-03-14T14:56:40;9.60;99.90
11934;DHT22;6026;48.784;9.198;2023-03-14T14:59:17;9.50;99.90
11934;DHT22;6026;48.784;9.198;2023-03-14T15:01:43;9.50;99.90
11934;DHT22;6026;48.784;9.198;2023-03-14T15:04:11;9.50;99.90
11934;DHT22;6026;48.784;9.198;2023-03-14T15:06:38;9.50;99.90
11934;DHT22;6026;48.784;9.198;2023-03-14T15:09:05;9.50;99.90
11934;DHT22;6026;48.784;9.198;2023-03-14T15:11:31;9.50;99.90
11934;DHT22;6026;48.784;9.198;2023-03-14T15:13:57;9.50;99.90
11934;DHT22;6026;48.784;9.198;2023-03-14T15:16:27;9.60;99.90
11934;DHT22;6026;48.784;9.198;2023-03-14T15:18:55;9.70;99.90
11934;DHT22;6026;48.784;9.198;2023-03-14T15:21:21;9.80;99.90
11934;DHT22;6026;48.784;9.198;2023-03-14T15:23:47;9.90;99.90
11934;DHT22;6026;48.784;9.198;2023-03-14T15:26:22;10.20;99.90
11934;DHT22;6026;48.784;9.198;2023-03-14T15:28:48;10.40;99.90
11934;DHT22;6026;48.784;9.198;2023-03-14T15:31:16;10.70;99.90
11934;DHT22;6026;48.784;9.198;2023-03-14T15:33:43;10.60;99.90
11934;DHT22;6026;48.784;9.198;2023-03-14T15:36:29;10.60;99.90
11934;DHT22;6026;48.784;9.198;2023-03-14T15:38:57;10.50;99.90
11934;DHT22;6026;48.784;9.198;2023-03-14T15:41:24;10.50;99.90
11934;DHT22;6026;48.784;9.198;2023-03-14T15:43:49;10.10;99.90
11934;DHT22;6026;48.784;9.198;2023-03-14T15:46:16;10.20;99.90
11934;DHT22;6026;48.784;9.198;2023-03-14T15:48:43;10.20;99.90
11934;DHT22;6026;48.784;9.198;2023-03-14T15:51:09;10.10;99.90
11934;DHT22;6026;48.784;9.198;2023-03-14T15:53:35;10.00;99.90
11934;DHT22;6026;48.784;9.198;2023-03-14T15:56:11;10.10;99.90
11934;DHT22;6026;48.784;9.198;2023-03-14T15:58:37;10.30;99.90
11934;DHT22;6026;48.784;9.198;2023-03-14T16:01:06;10.40;99.90
11934;DHT22;6026;48.784;9.198;2023-03-14T16:03:34;10.70;99.90
11934;DHT22;6026;48.784;9.198;2023-03-14T16:05:59;10.90;99.90
11934;DHT22;6026;48.784;9.198;2023-03-14T16:08:26;11.00;99.90
11934;DHT22;6026;48.784;9.198;2023-03-14T16:10:54;10.70;99.90
11934;DHT22;6026;48.784;9.198;2023-03-14T16:13:19;10.70;99.90
11934;DHT22;6026;48.784;9.198;2023-03-14T16:15:59;10.80;99.90
11934;DHT22;6026;48.784;9.198;2023-03-14T16:18:28;10.50;99.90
11934;DHT22;6026;48.784;9.198;2023-03-14T16:20:56;10.30;99.90
11934;DHT22;6026;48.784;9.198;2023-03-14T16:23:22;10.00;99.90
11934;DHT22;6026;48.784;9.198;2023-03-14T16:25:48;9.90;99.90
11934;DHT22;6026;48.784;9.198;2023-03-14T16:28:14;9.80;99.90
11934;DHT22;6026;48.784;9.198;2023-03-14T16:30:39;9.70;99.90
11934;DHT22;6026;48.784;9.198;2023-03-14T16:33:05;9.60;99.90
11934;DHT22;6026;48.784;9.198;2023-03-14T16:35:38;9.50;99.90
11934;DHT22;6026;48.784;9.198;2023-03-14T16:38:04;9.30;99.90
11934;DHT22;6026;48.784;9.198;2023-03-14T16:40:30;9.30;99.90
11934;DHT22;6026;48.784;9.198;2023-03-14T16:42:55;9.20;99.90
11934;DHT22;6026;48.784;9.198;2023-03-14T16:45:21;9.20;99.90
11934;DHT22;6026;48.784;9.198;2023-03-14T16:47:46;9.10;99.90
11934;DHT22;6026;48.784;9.198;2023-03-14T16:50:12;9.10;99.90
11934;DHT22;6026;48.784;9.198;2023-03-14T16:52:37;9.00;99.90
11934;DHT22;6026;48.784;9.198;2023-03-14T16:55:03;9.00;99.90
11934;DHT22;6026;48.784;9.198;2023-03-14T16:57:29;9.00;99.90
11934;DHT22;6026;48.784;9.198;2023-03-14T16:59:54;9.00;99.90
11934;DHT22;6026;48.784;9.198;2023-03-14T17:02:20;8.90;99.90
11934;DHT22;6026;48.784;9.198;2023-03-14T17:04:46;8.90;99.90
11934;DHT22;6026;48.784;9.198;2023-03-14T17:07:11;9.00;99.90
11934;DHT22;6026;48.784;9.198;2023-03-14T17:09:37;9.00;99.90
11934;DHT22;6026;48.784;9.198;2023-03-14T17:12:04;9.00;99.90